San Angelo Regional Airport

Airport
ICAO code: 
KSJT
Summary
ICAO Region: 
NAM
Territory: 
Location: 
San Angelo, Texas,
Coordinates: 
Aerial View: 
31° 21' 27" N, 100° 29' 46" W
Airport WX: 
Sand Storm
Metar
Observation
KSJT 040751Z AUTO 25004KT 10SM CLR 14/11 A3002 RMK AO2 SLP148 T01390106
Station
San Angelo, Mathis Field
Date/Time
2021-12-04 07:51:00
Wind direction
250°
Wind speed
04 kts
Lowest cloud amount
n/a
Temperature
13.9°C
Dew point
10.6°C
Humidity
80%
Weather condition
n/a

Description

San Angelo Regional Airport, also known as Mathis Field, is a public use airport serving the city of San Angelo, in Tom Green County, Texas.

Climatology

Semi-arid Steppe climate (Köppen climate classification BSk) - Little precipitation, hot summers and cold winters, sometimes with large changes in temperature in a 24 hour period.

Runways

Designator Length Width Surface Rops
9/27 1342 23 ASP Yes/Yes
3/21 1810 46 ASP Yes/Yes
18/36 2453 46 ASP Yes/Yes
Airport map: 
Aerial View: 

SKYbrary Partners:

Safety knowledge contributed by: